sensor_id;sensor_type;location;lat;lon;timestamp;pressure;altitude;pressure_sealevel;temperature;humidity
50430;BME280;36359;41.556;-8.418;2023-02-10T08:32:50;101810.50;;;9.37;47.24
50430;BME280;36359;41.556;-8.418;2023-02-10T08:35:17;101822.44;;;9.60;45.34
50430;BME280;36359;41.556;-8.418;2023-02-10T08:37:42;101824.81;;;10.15;45.26
50430;BME280;36359;41.556;-8.418;2023-02-10T08:40:09;101818.41;;;9.91;45.34
50430;BME280;36359;41.556;-8.418;2023-02-10T08:42:34;101832.09;;;9.89;45.10
50430;BME280;36359;41.556;-8.418;2023-02-10T08:45:00;101835.88;;;10.25;44.64
50430;BME280;36359;41.556;-8.418;2023-02-10T08:47:26;101837.53;;;10.15;44.89
50430;BME280;36359;41.556;-8.418;2023-02-10T08:49:53;101837.63;;;10.13;44.06
50430;BME280;36359;41.556;-8.418;2023-02-10T08:52:19;101838.06;;;10.33;46.21
50430;BME280;36359;41.556;-8.418;2023-02-10T08:54:46;101842.44;;;10.59;44.69
50430;BME280;36359;41.556;-8.418;2023-02-10T08:57:12;101843.34;;;10.47;44.88
50430;BME280;36359;41.556;-8.418;2023-02-10T08:59:37;101846.25;;;10.57;46.04
50430;BME280;36359;41.556;-8.418;2023-02-10T09:02:03;101852.69;;;11.04;46.01
50430;BME280;36359;41.556;-8.418;2023-02-10T09:04:29;101850.84;;;10.80;45.97
50430;BME280;36359;41.556;-8.418;2023-02-10T09:06:55;101853.66;;;10.79;44.65
50430;BME280;36359;41.556;-8.418;2023-02-10T09:09:22;101851.25;;;10.87;46.28
50430;BME280;36359;41.556;-8.418;2023-02-10T09:11:51;101853.56;;;11.04;46.37
50430;BME280;36359;41.556;-8.418;2023-02-10T09:14:17;101857.50;;;11.00;44.98
50430;BME280;36359;41.556;-8.418;2023-02-10T09:16:44;101854.28;;;11.66;47.37
50430;BME280;36359;41.556;-8.418;2023-02-10T09:19:10;101843.31;;;11.78;46.07
50430;BME280;36359;41.556;-8.418;2023-02-10T09:21:36;101845.09;;;11.44;44.95
50430;BME280;36359;41.556;-8.418;2023-02-10T09:24:02;101851.50;;;11.43;43.81
50430;BME280;36359;41.556;-8.418;2023-02-10T09:26:28;101839.84;;;11.30;48.20
50430;BME280;36359;41.556;-8.418;2023-02-10T09:28:53;101841.66;;;10.94;45.04
50430;BME280;36359;41.556;-8.418;2023-02-10T09:31:19;101849.28;;;11.13;45.81
50430;BME280;36359;41.556;-8.418;2023-02-10T09:33:45;101852.28;;;11.21;48.29
50430;BME280;36359;41.556;-8.418;2023-02-10T09:36:16;101861.81;;;11.73;44.38
50430;BME280;36359;41.556;-8.418;2023-02-10T09:38:42;101857.34;;;11.26;44.37
50430;BME280;36359;41.556;-8.418;2023-02-10T09:44:20;101864.66;;;11.01;45.48
50430;BME280;36359;41.556;-8.418;2023-02-10T09:55:03;101852.88;;;11.49;45.86
50430;BME280;36359;41.556;-8.418;2023-02-10T09:57:43;101849.91;;;11.52;47.29
50430;BME280;36359;41.556;-8.418;2023-02-10T10:00:43;101861.63;;;11.41;45.63
50430;BME280;36359;41.556;-8.418;2023-02-10T10:03:15;101852.16;;;11.58;50.09
50430;BME280;36359;41.556;-8.418;2023-02-10T10:06:04;101846.00;;;11.67;46.39
50430;BME280;36359;41.556;-8.418;2023-02-10T10:08:42;101857.31;;;11.85;43.51
50430;BME280;36359;41.556;-8.418;2023-02-10T10:14:08;101844.25;;;12.24;43.68
50430;BME280;36359;41.556;-8.418;2023-02-10T10:19:28;101846.09;;;11.90;46.34
50430;BME280;36359;41.556;-8.418;2023-02-10T10:22:01;101844.38;;;11.53;43.82
50430;BME280;36359;41.556;-8.418;2023-02-10T10:30:54;101847.22;;;12.10;44.59
50430;BME280;36359;41.556;-8.418;2023-02-10T10:33:31;101842.28;;;12.03;44.73
50430;BME280;36359;41.556;-8.418;2023-02-10T10:35:58;101840.91;;;11.98;43.65
50430;BME280;36359;41.556;-8.418;2023-02-10T10:38:32;101830.66;;;12.13;42.77
50430;BME280;36359;41.556;-8.418;2023-02-10T10:41:10;101835.09;;;12.47;43.71
50430;BME280;36359;41.556;-8.418;2023-02-10T10:43:49;101827.91;;;12.35;44.94
50430;BME280;36359;41.556;-8.418;2023-02-10T10:48:45;101826.78;;;12.60;43.64
50430;BME280;36359;41.556;-8.418;2023-02-10T10:51:11;101819.00;;;13.31;42.97
50430;BME280;36359;41.556;-8.418;2023-02-10T10:56:13;101815.19;;;12.90;45.61
50430;BME280;36359;41.556;-8.418;2023-02-10T10:58:42;101804.69;;;13.18;43.61
50430;BME280;36359;41.556;-8.418;2023-02-10T11:01:11;101803.63;;;13.93;42.29
50430;BME280;36359;41.556;-8.418;2023-02-10T11:03:37;101792.50;;;13.54;42.09
50430;BME280;36359;41.556;-8.418;2023-02-10T11:06:15;101798.22;;;13.51;42.49
50430;BME280;36359;41.556;-8.418;2023-02-10T11:11:13;101788.84;;;13.65;41.36
50430;BME280;36359;41.556;-8.418;2023-02-10T11:13:49;101791.00;;;14.32;45.09
50430;BME280;36359;41.556;-8.418;2023-02-10T11:16:16;101788.59;;;14.08;41.43
50430;BME280;36359;41.556;-8.418;2023-02-10T11:18:58;101787.06;;;14.16;40.29
50430;BME280;36359;41.556;-8.418;2023-02-10T11:21:37;101781.06;;;14.31;43.16
50430;BME280;36359;41.556;-8.418;2023-02-10T11:24:17;101782.44;;;14.06;38.93
50430;BME280;36359;41.556;-8.418;2023-02-10T11:27:35;101772.63;;;13.94;38.87
50430;BME280;36359;41.556;-8.418;2023-02-10T11:29:51;101765.03;;;13.98;39.38
50430;BME280;36359;41.556;-8.418;2023-02-10T11:34:51;101754.09;;;13.67;38.36
50430;BME280;36359;41.556;-8.418;2023-02-10T11:37:35;101749.63;;;13.66;37.92
50430;BME280;36359;41.556;-8.418;2023-02-10T11:40:05;101750.53;;;14.07;39.63
50430;BME280;36359;41.556;-8.418;2023-02-10T11:42:41;101743.06;;;13.69;38.26
50430;BME280;36359;41.556;-8.418;2023-02-10T11:47:36;101734.16;;;14.07;37.90
50430;BME280;36359;41.556;-8.418;2023-02-10T11:50:16;101733.72;;;14.52;40.37
50430;BME280;36359;41.556;-8.418;2023-02-10T11:52:44;101726.84;;;14.58;38.29
50430;BME280;36359;41.556;-8.418;2023-02-10T11:55:15;101723.69;;;14.62;37.48
50430;BME280;36359;41.556;-8.418;2023-02-10T12:01:08;101724.34;;;14.45;41.25
50430;BME280;36359;41.556;-8.418;2023-02-10T12:03:56;101720.31;;;14.49;37.98
50430;BME280;36359;41.556;-8.418;2023-02-10T12:06:36;101715.09;;;14.26;36.71
50430;BME280;36359;41.556;-8.418;2023-02-10T12:09:16;101706.50;;;14.41;38.83
50430;BME280;36359;41.556;-8.418;2023-02-10T12:12:06;101706.16;;;14.74;38.33
50430;BME280;36359;41.556;-8.418;2023-02-10T12:20:25;101684.94;;;14.38;37.09
50430;BME280;36359;41.556;-8.418;2023-02-10T12:28:53;101672.19;;;14.67;36.95
50430;BME280;36359;41.556;-8.418;2023-02-10T12:39:50;101663.72;;;14.90;38.28
50430;BME280;36359;41.556;-8.418;2023-02-10T12:44:51;101650.03;;;15.09;36.24
50430;BME280;36359;41.556;-8.418;2023-02-10T12:50:00;101646.19;;;14.83;36.03
50430;BME280;36359;41.556;-8.418;2023-02-10T12:52:41;101652.94;;;14.88;35.48
50430;BME280;36359;41.556;-8.418;2023-02-10T12:55:22;101637.22;;;15.57;40.30
50430;BME280;36359;41.556;-8.418;2023-02-10T12:58:02;101638.38;;;15.54;35.07
50430;BME280;36359;41.556;-8.418;2023-02-10T13:00:31;101627.41;;;15.92;41.87
50430;BME280;36359;41.556;-8.418;2023-02-10T13:03:03;101623.72;;;15.45;36.97
50430;BME280;36359;41.556;-8.418;2023-02-10T13:05:42;101619.88;;;15.29;34.25
50430;BME280;36359;41.556;-8.418;2023-02-10T13:08:19;101616.94;;;15.03;34.80
50430;BME280;36359;41.556;-8.418;2023-02-10T13:10:51;101607.34;;;15.36;39.97
50430;BME280;36359;41.556;-8.418;2023-02-10T13:13:24;101610.16;;;15.54;37.11
50430;BME280;36359;41.556;-8.418;2023-02-10T13:18:25;101593.69;;;15.63;36.79
50430;BME280;36359;41.556;-8.418;2023-02-10T13:23:40;101590.78;;;15.75;36.53
50430;BME280;36359;41.556;-8.418;2023-02-10T13:31:44;101570.78;;;15.37;35.50
50430;BME280;36359;41.556;-8.418;2023-02-10T13:34:26;101572.41;;;15.57;36.21
50430;BME280;36359;41.556;-8.418;2023-02-10T13:37:04;101565.88;;;15.40;34.05
50430;BME280;36359;41.556;-8.418;2023-02-10T13:39:31;101558.72;;;15.57;36.26
50430;BME280;36359;41.556;-8.418;2023-02-10T13:42:08;101556.72;;;15.59;37.74
50430;BME280;36359;41.556;-8.418;2023-02-10T13:44:36;101549.44;;;15.78;35.99
50430;BME280;36359;41.556;-8.418;2023-02-10T13:52:23;101540.28;;;15.59;36.25
50430;BME280;36359;41.556;-8.418;2023-02-10T13:55:24;101544.44;;;15.63;40.27
50430;BME280;36359;41.556;-8.418;2023-02-10T13:57:58;101539.97;;;15.90;38.24
50430;BME280;36359;41.556;-8.418;2023-02-10T14:00:29;101532.56;;;16.00;38.51
50430;BME280;36359;41.556;-8.418;2023-02-10T14:03:18;101527.31;;;15.89;34.51
50430;BME280;36359;41.556;-8.418;2023-02-10T14:06:00;101527.34;;;15.79;34.92
50430;BME280;36359;41.556;-8.418;2023-02-10T14:08:31;101523.22;;;15.93;36.63
50430;BME280;36359;41.556;-8.418;2023-02-10T14:21:51;101494.38;;;15.99;39.49
50430;BME280;36359;41.556;-8.418;2023-02-10T14:24:23;101493.44;;;16.08;38.68
50430;BME280;36359;41.556;-8.418;2023-02-10T14:26:50;101488.44;;;16.21;39.27
50430;BME280;36359;41.556;-8.418;2023-02-10T14:29:18;101491.00;;;16.23;34.81
50430;BME280;36359;41.556;-8.418;2023-02-10T14:31:49;101483.97;;;16.02;32.59
50430;BME280;36359;41.556;-8.418;2023-02-10T14:34:34;101475.53;;;15.78;32.85
50430;BME280;36359;41.556;-8.418;2023-02-10T14:37:03;101483.28;;;16.00;36.14
50430;BME280;36359;41.556;-8.418;2023-02-10T14:39:38;101479.44;;;15.75;33.02
50430;BME280;36359;41.556;-8.418;2023-02-10T14:42:05;101472.25;;;15.74;34.55
50430;BME280;36359;41.556;-8.418;2023-02-10T14:44:39;101463.19;;;15.74;33.25
50430;BME280;36359;41.556;-8.418;2023-02-10T14:47:06;101464.72;;;15.76;32.51
50430;BME280;36359;41.556;-8.418;2023-02-10T14:49:39;101467.72;;;15.83;34.38
50430;BME280;36359;41.556;-8.418;2023-02-10T14:52:05;101465.03;;;15.91;36.56
50430;BME280;36359;41.556;-8.418;2023-02-10T14:54:38;101463.19;;;15.74;32.09
50430;BME280;36359;41.556;-8.418;2023-02-10T14:57:12;101461.84;;;15.78;34.70
50430;BME280;36359;41.556;-8.418;2023-02-10T14:59:39;101457.75;;;15.64;35.59
50430;BME280;36359;41.556;-8.418;2023-02-10T15:02:16;101460.34;;;15.65;33.05
50430;BME280;36359;41.556;-8.418;2023-02-10T15:04:48;101447.84;;;15.63;32.81
50430;BME280;36359;41.556;-8.418;2023-02-10T15:07:20;101443.53;;;15.60;32.72
50430;BME280;36359;41.556;-8.418;2023-02-10T15:09:47;101457.09;;;15.52;32.27
50430;BME280;36359;41.556;-8.418;2023-02-10T15:12:16;101446.44;;;15.59;33.98
50430;BME280;36359;41.556;-8.418;2023-02-10T15:14:52;101436.53;;;15.76;37.22
50430;BME280;36359;41.556;-8.418;2023-02-10T15:17:42;101439.97;;;15.78;37.79
50430;BME280;36359;41.556;-8.418;2023-02-10T15:22:46;101441.09;;;15.57;32.43
50430;BME280;36359;41.556;-8.418;2023-02-10T15:27:57;101431.63;;;15.52;32.83
50430;BME280;36359;41.556;-8.418;2023-02-10T15:30:27;101430.97;;;15.67;34.01
50430;BME280;36359;41.556;-8.418;2023-02-10T15:32:56;101425.03;;;15.72;33.98
50430;BME280;36359;41.556;-8.418;2023-02-10T15:35:23;101413.13;;;15.63;34.21
50430;BME280;36359;41.556;-8.418;2023-02-10T15:37:52;101416.72;;;15.82;36.26
50430;BME280;36359;41.556;-8.418;2023-02-10T15:40:26;101418.16;;;15.68;32.45
50430;BME280;36359;41.556;-8.418;2023-02-10T15:42:58;101414.38;;;15.51;32.75
50430;BME280;36359;41.556;-8.418;2023-02-10T15:45:27;101412.53;;;15.70;40.08
50430;BME280;36359;41.556;-8.418;2023-02-10T15:47:59;101399.03;;;15.58;32.39
50430;BME280;36359;41.556;-8.418;2023-02-10T15:50:25;101403.97;;;15.55;34.84
50430;BME280;36359;41.556;-8.418;2023-02-10T15:52:51;101391.78;;;15.49;36.71
50430;BME280;36359;41.556;-8.418;2023-02-10T15:55:26;101393.66;;;15.49;34.08
50430;BME280;36359;41.556;-8.418;2023-02-10T15:57:54;101392.31;;;15.35;34.10
50430;BME280;36359;41.556;-8.418;2023-02-10T16:00:29;101395.31;;;15.24;32.50
50430;BME280;36359;41.556;-8.418;2023-02-10T16:02:56;101396.16;;;15.24;33.33
50430;BME280;36359;41.556;-8.418;2023-02-10T16:05:23;101387.34;;;15.30;33.56
50430;BME280;36359;41.556;-8.418;2023-02-10T16:07:49;101385.53;;;15.21;33.30
50430;BME280;36359;41.556;-8.418;2023-02-10T16:10:22;101376.31;;;15.22;33.33
50430;BME280;36359;41.556;-8.418;2023-02-10T16:12:49;101381.53;;;15.15;35.78
50430;BME280;36359;41.556;-8.418;2023-02-10T16:15:17;101368.56;;;15.17;36.23
50430;BME280;36359;41.556;-8.418;2023-02-10T16:17:45;101367.41;;;15.38;38.46
50430;BME280;36359;41.556;-8.418;2023-02-10T16:20:23;101375.75;;;15.18;34.57
50430;BME280;36359;41.556;-8.418;2023-02-10T16:22:50;101380.59;;;15.25;33.36
50430;BME280;36359;41.556;-8.418;2023-02-10T16:25:17;101368.25;;;15.20;35.09
50430;BME280;36359;41.556;-8.418;2023-02-10T16:27:43;101371.84;;;15.21;35.24
50430;BME280;36359;41.556;-8.418;2023-02-10T16:30:22;101370.50;;;15.07;33.92
50430;BME280;36359;41.556;-8.418;2023-02-10T16:32:50;101366.13;;;15.14;33.98
50430;BME280;36359;41.556;-8.418;2023-02-10T16:35:16;101362.31;;;15.07;37.75
50430;BME280;36359;41.556;-8.418;2023-02-10T16:37:42;101370.09;;;15.02;33.75
50430;BME280;36359;41.556;-8.418;2023-02-10T16:40:17;101376.06;;;15.15;34.80
50430;BME280;36359;41.556;-8.418;2023-02-10T16:42:44;101376.06;;;15.15;40.89
50430;BME280;36359;41.556;-8.418;2023-02-10T16:45:10;101376.75;;;15.17;36.89
50430;BME280;36359;41.556;-8.418;2023-02-10T16:47:36;101381.53;;;15.15;34.83
50430;BME280;36359;41.556;-8.418;2023-02-10T16:50:02;101379.41;;;15.09;38.78
50430;BME280;36359;41.556;-8.418;2023-02-10T16:52:27;101385.03;;;15.08;37.76
50430;BME280;36359;41.556;-8.418;2023-02-10T16:54:54;101381.09;;;14.92;35.00
50430;BME280;36359;41.556;-8.418;2023-02-10T16:57:20;101383.72;;;14.84;35.02
50430;BME280;36359;41.556;-8.418;2023-02-10T16:59:45;101383.13;;;14.90;36.55
50430;BME280;36359;41.556;-8.418;2023-02-10T17:02:11;101380.13;;;14.84;34.91
50430;BME280;36359;41.556;-8.418;2023-02-10T17:04:37;101376.31;;;14.76;35.63
50430;BME280;36359;41.556;-8.418;2023-02-10T17:07:03;101377.59;;;14.72;36.30
50430;BME280;36359;41.556;-8.418;2023-02-10T17:09:28;101381.09;;;14.92;41.35
50430;BME280;36359;41.556;-8.418;2023-02-10T17:11:54;101387.06;;;14.78;35.77
50430;BME280;36359;41.556;-8.418;2023-02-10T17:14:20;101388.63;;;14.81;36.34
50430;BME280;36359;41.556;-8.418;2023-02-10T17:16:50;101387.38;;;14.75;37.43
50430;BME280;36359;41.556;-8.418;2023-02-10T17:19:17;101391.72;;;14.95;41.98
50430;BME280;36359;41.556;-8.418;2023-02-10T17:21:43;101381.41;;;14.89;40.65
50430;BME280;36359;41.556;-8.418;2023-02-10T17:24:10;101380.38;;;14.90;42.82
50430;BME280;36359;41.556;-8.418;2023-02-10T17:26:36;101371.94;;;14.84;38.97
50430;BME280;36359;41.556;-8.418;2023-02-10T17:29:05;101384.34;;;14.78;36.83
50430;BME280;36359;41.556;-8.418;2023-02-10T17:31:31;101383.59;;;14.86;43.01
50430;BME280;36359;41.556;-8.418;2023-02-10T17:33:57;101381.25;;;14.63;36.86
50430;BME280;36359;41.556;-8.418;2023-02-10T17:36:26;101387.63;;;14.54;38.56
50430;BME280;36359;41.556;-8.418;2023-02-10T17:38:52;101378.84;;;14.50;38.26
50430;BME280;36359;41.556;-8.418;2023-02-10T17:41:20;101385.63;;;14.37;37.95
50430;BME280;36359;41.556;-8.418;2023-02-10T17:43:47;101378.75;;;14.32;38.64
50430;BME280;36359;41.556;-8.418;2023-02-10T17:46:14;101388.69;;;14.24;38.60
50430;BME280;36359;41.556;-8.418;2023-02-10T17:48:40;101384.59;;;14.00;38.65
50430;BME280;36359;41.556;-8.418;2023-02-10T17:51:09;101395.47;;;14.10;39.86
50430;BME280;36359;41.556;-8.418;2023-02-10T17:53:35;101398.63;;;14.05;43.02
50430;BME280;36359;41.556;-8.418;2023-02-10T17:56:01;101399.66;;;13.95;39.79
50430;BME280;36359;41.556;-8.418;2023-02-10T17:58:28;101396.66;;;13.98;41.02
50430;BME280;36359;41.556;-8.418;2023-02-10T18:00:54;101395.78;;;13.88;41.23
50430;BME280;36359;41.556;-8.418;2023-02-10T18:03:20;101399.09;;;14.01;42.73
50430;BME280;36359;41.556;-8.418;2023-02-10T18:05:47;101400.41;;;13.77;40.91
50430;BME280;36359;41.556;-8.418;2023-02-10T18:08:13;101407.00;;;13.84;42.53
50430;BME280;36359;41.556;-8.418;2023-02-10T18:10:39;101412.19;;;13.68;40.60
50430;BME280;36359;41.556;-8.418;2023-02-10T18:13:06;101407.56;;;13.78;44.10
50430;BME280;36359;41.556;-8.418;2023-02-10T18:15:32;101414.47;;;13.73;41.77
50430;BME280;36359;41.556;-8.418;2023-02-10T18:17:58;101408.41;;;13.50;42.38
50430;BME280;36359;41.556;-8.418;2023-02-10T18:20:24;101420.34;;;13.49;40.77
50430;BME280;36359;41.556;-8.418;2023-02-10T18:22:50;101420.19;;;13.40;41.78
50430;BME280;36359;41.556;-8.418;2023-02-10T18:25:16;101426.44;;;13.22;41.12
50430;BME280;36359;41.556;-8.418;2023-02-10T18:27:42;101428.72;;;13.07;42.23
50430;BME280;36359;41.556;-8.418;2023-02-10T18:30:09;101419.00;;;13.24;45.85
50430;BME280;36359;41.556;-8.418;2023-02-10T18:32:38;101424.66;;;12.91;43.17
50430;BME280;36359;41.556;-8.418;2023-02-10T18:35:07;101428.38;;;12.90;43.33
50430;BME280;36359;41.556;-8.418;2023-02-10T18:37:34;101427.38;;;12.61;43.97
50430;BME280;36359;41.556;-8.418;2023-02-10T18:39:59;101423.47;;;12.23;44.42
50430;BME280;36359;41.556;-8.418;2023-02-10T18:42:25;101426.09;;;12.34;44.25
50430;BME280;36359;41.556;-8.418;2023-02-10T18:44:51;101439.50;;;12.26;43.04
50430;BME280;36359;41.556;-8.418;2023-02-10T18:47:17;101435.00;;;12.36;44.47
50430;BME280;36359;41.556;-8.418;2023-02-10T18:49:43;101441.44;;;12.35;42.44
50430;BME280;36359;41.556;-8.418;2023-02-10T18:52:09;101448.31;;;12.60;44.48
50430;BME280;36359;41.556;-8.418;2023-02-10T18:54:35;101447.09;;;12.74;43.52
50430;BME280;36359;41.556;-8.418;2023-02-10T18:57:02;101452.53;;;12.74;42.25
50430;BME280;36359;41.556;-8.418;2023-02-10T18:59:27;101448.38;;;12.18;41.02
50430;BME280;36359;41.556;-8.418;2023-02-10T19:01:54;101458.66;;;12.15;41.43
50430;BME280;36359;41.556;-8.418;2023-02-10T19:04:20;101462.03;;;12.28;45.11
50430;BME280;36359;41.556;-8.418;2023-02-10T19:06:47;101461.56;;;12.02;42.26
50430;BME280;36359;41.556;-8.418;2023-02-10T19:09:13;101473.97;;;11.83;42.85
50430;BME280;36359;41.556;-8.418;2023-02-10T19:11:39;101466.09;;;11.80;42.40
50430;BME280;36359;41.556;-8.418;2023-02-10T19:14:06;101469.44;;;11.73;42.97
50430;BME280;36359;41.556;-8.418;2023-02-10T19:16:32;101471.25;;;11.83;42.55
50430;BME280;36359;41.556;-8.418;2023-02-10T19:18:59;101471.63;;;11.90;44.08
50430;BME280;36359;41.556;-8.418;2023-02-10T19:21:26;101472.06;;;12.07;42.79
50430;BME280;36359;41.556;-8.418;2023-02-10T19:23:52;101471.09;;;12.17;45.12
50430;BME280;36359;41.556;-8.418;2023-02-10T19:26:20;101479.72;;;12.01;42.05
50430;BME280;36359;41.556;-8.418;2023-02-10T19:28:46;101468.13;;;12.20;42.28
50430;BME280;36359;41.556;-8.418;2023-02-10T19:31:12;101470.88;;;12.72;46.59
50430;BME280;36359;41.556;-8.418;2023-02-10T19:33:39;101469.53;;;12.66;46.87
50430;BME280;36359;41.556;-8.418;2023-02-10T19:36:10;101472.91;;;12.07;42.46
50430;BME280;36359;41.556;-8.418;2023-02-10T19:38:36;101472.38;;;12.34;42.88
50430;BME280;36359;41.556;-8.418;2023-02-10T19:41:11;101483.78;;;12.28;45.10
50430;BME280;36359;41.556;-8.418;2023-02-10T19:43:37;101490.56;;;12.13;45.55
50430;BME280;36359;41.556;-8.418;2023-02-10T19:46:03;101481.34;;;11.60;41.71
50430;BME280;36359;41.556;-8.418;2023-02-10T19:48:32;101483.97;;;11.94;44.89
50430;BME280;36359;41.556;-8.418;2023-02-10T19:51:09;101482.56;;;12.00;42.69
50430;BME280;36359;41.556;-8.418;2023-02-10T19:53:36;101485.75;;;11.73;41.31
50430;BME280;36359;41.556;-8.418;2023-02-10T19:56:02;101483.94;;;11.62;43.15
50430;BME280;36359;41.556;-8.418;2023-02-10T19:58:28;101482.06;;;12.06;47.29
50430;BME280;36359;41.556;-8.418;2023-02-10T20:00:59;101500.88;;;11.66;42.19
50430;BME280;36359;41.556;-8.418;2023-02-10T20:03:25;101503.25;;;11.59;41.20
50430;BME280;36359;41.556;-8.418;2023-02-10T20:05:51;101506.44;;;11.53;41.22
50430;BME280;36359;41.556;-8.418;2023-02-10T20:08:16;101511.25;;;11.60;42.35
50430;BME280;36359;41.556;-8.418;2023-02-10T20:10:51;101502.00;;;11.52;41.84
50430;BME280;36359;41.556;-8.418;2023-02-10T20:13:17;101505.84;;;11.49;41.79
50430;BME280;36359;41.556;-8.418;2023-02-10T20:15:45;101499.69;;;11.47;44.35
50430;BME280;36359;41.556;-8.418;2023-02-10T20:18:10;101503.13;;;11.49;42.12
50430;BME280;36359;41.556;-8.418;2023-02-10T20:20:36;101498.34;;;11.30;41.84
50430;BME280;36359;41.556;-8.418;2023-02-10T20:23:02;101499.81;;;11.23;42.71
50430;BME280;36359;41.556;-8.418;2023-02-10T20:25:27;101498.94;;;11.45;42.66
50430;BME280;36359;41.556;-8.418;2023-02-10T20:27:53;101496.53;;;11.63;42.63
50430;BME280;36359;41.556;-8.418;2023-02-10T20:30:19;101485.84;;;11.50;42.13
50430;BME280;36359;41.556;-8.418;2023-02-10T20:32:45;101500.44;;;11.81;44.28
50430;BME280;36359;41.556;-8.418;2023-02-10T20:35:11;101488.94;;;11.78;43.37
50430;BME280;36359;41.556;-8.418;2023-02-10T20:37:36;101497.69;;;11.49;42.71
50430;BME280;36359;41.556;-8.418;2023-02-10T20:40:02;101501.84;;;11.65;45.91
50430;BME280;36359;41.556;-8.418;2023-02-10T20:42:27;101502.00;;;11.52;44.31
50430;BME280;36359;41.556;-8.418;2023-02-10T20:44:53;101501.72;;;11.66;48.15
50430;BME280;36359;41.556;-8.418;2023-02-10T20:47:19;101501.16;;;11.40;44.45
50430;BME280;36359;41.556;-8.418;2023-02-10T20:49:45;101504.59;;;11.53;45.78
50430;BME280;36359;41.556;-8.418;2023-02-10T20:52:10;101507.47;;;11.41;44.36
50430;BME280;36359;41.556;-8.418;2023-02-10T20:54:36;101510.50;;;11.58;45.86
50430;BME280;36359;41.556;-8.418;2023-02-10T20:57:02;101510.16;;;11.52;45.42
50430;BME280;36359;41.556;-8.418;2023-02-10T20:59:28;101514.44;;;11.77;49.75
50430;BME280;36359;41.556;-8.418;2023-02-10T21:01:54;101511.44;;;11.91;47.55
50430;BME280;36359;41.556;-8.418;2023-02-10T21:04:20;101516.44;;;12.07;45.05
50430;BME280;36359;41.556;-8.418;2023-02-10T21:06:45;101513.22;;;12.02;43.84
50430;BME280;36359;41.556;-8.418;2023-02-10T21:09:11;101519.38;;;12.15;49.42
50430;BME280;36359;41.556;-8.418;2023-02-10T21:11:37;101530.28;;;11.60;44.72
50430;BME280;36359;41.556;-8.418;2023-02-10T21:14:03;101520.56;;;11.90;46.42
50430;BME280;36359;41.556;-8.418;2023-02-10T21:16:29;101529.13;;;11.74;43.61
50430;BME280;36359;41.556;-8.418;2023-02-10T21:18:54;101528.34;;;11.18;45.05
50430;BME280;36359;41.556;-8.418;2023-02-10T21:21:20;101526.88;;;11.47;46.20
50430;BME280;36359;41.556;-8.418;2023-02-10T21:23:47;101530.56;;;11.46;44.11
50430;BME280;36359;41.556;-8.418;2023-02-10T21:26:14;101526.72;;;11.37;44.23
50430;BME280;36359;41.556;-8.418;2023-02-10T21:28:40;101533.69;;;11.30;48.07
50430;BME280;36359;41.556;-8.418;2023-02-10T21:31:12;101535.28;;;11.10;44.65
50430;BME280;36359;41.556;-8.418;2023-02-10T21:33:39;101544.44;;;11.09;43.90
50430;BME280;36359;41.556;-8.418;2023-02-10T21:36:06;101544.94;;;11.03;44.36
50430;BME280;36359;41.556;-8.418;2023-02-10T21:38:32;101535.41;;;10.98;46.30
50430;BME280;36359;41.556;-8.418;2023-02-10T21:41:03;101535.78;;;11.16;44.59
50430;BME280;36359;41.556;-8.418;2023-02-10T21:43:30;101534.06;;;11.03;44.85
50430;BME280;36359;41.556;-8.418;2023-02-10T21:45:55;101540.72;;;10.99;44.97
50430;BME280;36359;41.556;-8.418;2023-02-10T21:48:22;101543.56;;;11.09;49.07
50430;BME280;36359;41.556;-8.418;2023-02-10T21:50:48;101534.44;;;11.10;45.46
50430;BME280;36359;41.556;-8.418;2023-02-10T21:53:13;101539.97;;;11.20;47.05
50430;BME280;36359;41.556;-8.418;2023-02-10T21:55:39;101539.00;;;11.09;46.22
50430;BME280;36359;41.556;-8.418;2023-02-10T21:58:05;101538.75;;;11.12;48.59
50430;BME280;36359;41.556;-8.418;2023-02-10T22:00:32;101547.25;;;11.42;47.79
50430;BME280;36359;41.556;-8.418;2023-02-10T22:02:57;101537.84;;;11.46;47.74
50430;BME280;36359;41.556;-8.418;2023-02-10T22:05:23;101531.81;;;11.42;51.95
50430;BME280;36359;41.556;-8.418;2023-02-10T22:07:49;101544.28;;;11.00;47.19
50430;BME280;36359;41.556;-8.418;2023-02-10T22:10:15;101537.75;;;10.68;47.12
50430;BME280;36359;41.556;-8.418;2023-02-10T22:12:41;101537.75;;;10.91;48.84
50430;BME280;36359;41.556;-8.418;2023-02-10T22:15:07;101535.13;;;10.67;47.66
50430;BME280;36359;41.556;-8.418;2023-02-10T22:17:33;101535.72;;;10.48;47.69
50430;BME280;36359;41.556;-8.418;2023-02-10T22:19:59;101537.69;;;10.46;48.01
50430;BME280;36359;41.556;-8.418;2023-02-10T22:22:25;101527.63;;;10.59;48.50
50430;BME280;36359;41.556;-8.418;2023-02-10T22:24:50;101534.72;;;10.49;47.84
50430;BME280;36359;41.556;-8.418;2023-02-10T22:27:16;101532.16;;;10.48;48.14
50430;BME280;36359;41.556;-8.418;2023-02-10T22:32:11;101526.06;;;10.33;48.12
50430;BME280;36359;41.556;-8.418;2023-02-10T22:34:36;101524.03;;;10.23;48.14
50430;BME280;36359;41.556;-8.418;2023-02-10T22:37:02;101527.72;;;10.22;48.88
50430;BME280;36359;41.556;-8.418;2023-02-10T22:39:28;101522.84;;;10.04;47.66
50430;BME280;36359;41.556;-8.418;2023-02-10T22:41:53;101516.09;;;10.09;48.45
50430;BME280;36359;41.556;-8.418;2023-02-10T22:44:19;101510.88;;;9.95;48.05
50430;BME280;36359;41.556;-8.418;2023-02-10T22:46:45;101512.06;;;9.91;48.21
50430;BME280;36359;41.556;-8.418;2023-02-10T22:49:10;101510.16;;;10.04;49.62
50430;BME280;36359;41.556;-8.418;2023-02-10T22:51:39;101507.16;;;9.96;48.50
50430;BME280;36359;41.556;-8.418;2023-02-10T22:54:06;101499.75;;;9.87;48.49
50430;BME280;36359;41.556;-8.418;2023-02-10T22:56:35;101505.88;;;10.13;48.73
50430;BME280;36359;41.556;-8.418;2023-02-10T22:59:02;101506.78;;;9.89;48.31
50430;BME280;36359;41.556;-8.418;2023-02-10T23:01:33;101505.25;;;9.85;48.48